Northeast, South Carolina
Current Conditions -  °F | °C
As of 9:58 AM on Friday 28 Nov 2014 (Local Time) from KMMT Reporting Station
Clear Clear  
Wind Chill: 34°   Ceiling: Unl
Heat Index: 40°   Visibility: 10mi
Dew Point: 21°   Wind: 10mph
Humidity: 46%   Direction: 10°N
Pressure: 30.43"   Gusts: NA
Location:  34.0558°N, 80.8483°W
Report Text: KMMT 281458Z AUTO 01009KT 10SM CLR 05/M06 A3043 RMK AO2 SLP309 T00461062 52020
Loading
Personal Weather Stations






























Interactive Weather Map New forecast layout! Learn more

10-Day Weather Forecast

Advertisements
Track Severe Weather on mobile